createdAt,value
2018-07-31T00:00:17.753Z,21.44
2018-07-31T00:02:46.971Z,21.64
2018-07-31T00:05:16.212Z,21.46
2018-07-31T00:07:45.032Z,21.42
2018-07-31T00:10:14.103Z,21.46
2018-07-31T00:12:42.929Z,21.44
2018-07-31T00:15:12.649Z,21.35
2018-07-31T00:17:41.483Z,21.36
2018-07-31T00:20:10.736Z,21.31
2018-07-31T00:22:39.790Z,21.34
2018-07-31T00:25:08.960Z,21.27
2018-07-31T00:27:38.063Z,21.18
2018-07-31T00:30:08.272Z,21.11
2018-07-31T00:32:38.004Z,21.05
2018-07-31T00:35:07.817Z,21.03
2018-07-31T00:37:36.972Z,21.02
2018-07-31T00:40:06.628Z,20.98
2018-07-31T00:42:35.795Z,20.97
2018-07-31T00:45:05.420Z,20.98
2018-07-31T00:47:34.620Z,20.96
2018-07-31T00:50:03.449Z,20.99
2018-07-31T00:52:32.836Z,20.95
2018-07-31T00:55:01.657Z,20.88
2018-07-31T00:57:31.184Z,20.87
2018-07-31T01:00:00.018Z,20.89
2018-07-31T01:02:29.372Z,20.92
2018-07-31T01:04:59.058Z,20.88
2018-07-31T01:07:27.877Z,20.85
2018-07-31T01:09:56.685Z,20.81
2018-07-31T01:12:29.644Z,20.82
2018-07-31T01:14:58.825Z,20.81
2018-07-31T01:17:28.077Z,20.81
2018-07-31T01:19:56.912Z,20.80
2018-07-31T01:22:25.768Z,20.81
2018-07-31T01:24:54.584Z,20.78
2018-07-31T01:27:23.483Z,20.77
2018-07-31T01:29:52.995Z,20.73
2018-07-31T01:32:22.131Z,20.71
2018-07-31T01:34:51.345Z,20.66
2018-07-31T01:37:20.734Z,20.63
2018-07-31T01:39:49.592Z,20.62
2018-07-31T01:42:18.812Z,20.59
2018-07-31T01:44:48.653Z,20.58
2018-07-31T01:47:17.512Z,20.62
2018-07-31T01:49:46.784Z,20.59
2018-07-31T01:52:16.220Z,20.59
2018-07-31T01:54:45.299Z,20.55
2018-07-31T01:57:14.153Z,20.47
2018-07-31T01:59:43.234Z,20.45
2018-07-31T02:02:12.394Z,20.41
2018-07-31T02:04:41.330Z,20.36
2018-07-31T02:07:10.789Z,20.34
2018-07-31T02:09:39.970Z,20.29
2018-07-31T02:12:08.893Z,20.28
2018-07-31T02:14:38.416Z,20.23
2018-07-31T02:17:07.456Z,20.23
2018-07-31T02:19:36.687Z,20.21
2018-07-31T02:22:06.034Z,20.23
2018-07-31T02:24:35.182Z,20.17
2018-07-31T02:27:04.375Z,20.16
2018-07-31T02:29:38.780Z,20.13
2018-07-31T02:32:08.050Z,20.10
2018-07-31T02:34:37.203Z,20.07
2018-07-31T02:37:06.691Z,20.07
2018-07-31T02:39:36.787Z,20.04
2018-07-31T02:42:05.948Z,19.99
2018-07-31T02:44:35.325Z,19.98
2018-07-31T02:47:05.411Z,19.98
2018-07-31T02:49:34.256Z,19.95
2018-07-31T02:52:03.737Z,19.92
2018-07-31T02:54:32.878Z,19.91
2018-07-31T02:57:03.669Z,19.84
2018-07-31T02:59:32.661Z,19.84
2018-07-31T03:02:01.613Z,19.84
2018-07-31T03:04:31.387Z,19.80
2018-07-31T03:07:00.305Z,19.84
2018-07-31T03:09:29.214Z,19.81
2018-07-31T03:11:58.092Z,19.73
2018-07-31T03:14:27.243Z,19.76
2018-07-31T03:16:56.500Z,19.73
2018-07-31T03:19:25.420Z,19.70
2018-07-31T03:21:55.270Z,19.67
2018-07-31T03:24:24.209Z,19.61
2018-07-31T03:26:53.923Z,19.54
2018-07-31T03:29:25.074Z,19.48
2018-07-31T03:31:54.921Z,19.40
2018-07-31T03:34:24.396Z,19.35
2018-07-31T03:36:53.946Z,19.35
2018-07-31T03:39:23.098Z,19.31
2018-07-31T03:41:52.016Z,19.27
2018-07-31T03:44:21.241Z,19.23
2018-07-31T03:46:50.773Z,19.19
2018-07-31T03:49:19.812Z,19.14
2018-07-31T03:51:48.856Z,19.08
2018-07-31T03:54:17.723Z,19.06
2018-07-31T03:56:46.756Z,19.04
2018-07-31T03:59:15.883Z,19.04
2018-07-31T04:01:45.215Z,19.03
2018-07-31T04:04:24.648Z,19.02
2018-07-31T04:06:53.483Z,19.00
2018-07-31T04:09:22.312Z,18.97
2018-07-31T04:11:51.497Z,18.95
2018-07-31T04:17:17.747Z,18.95
2018-07-31T04:19:46.640Z,18.92
2018-07-31T04:22:15.618Z,18.92
2018-07-31T04:24:44.754Z,18.91
2018-07-31T04:27:13.585Z,18.90
2018-07-31T04:29:50.882Z,18.91
2018-07-31T04:32:20.388Z,18.93
2018-07-31T04:34:49.209Z,18.95
2018-07-31T04:37:18.587Z,18.98
2018-07-31T04:39:47.630Z,19.00
2018-07-31T04:42:16.502Z,19.01
2018-07-31T04:44:45.839Z,19.04
2018-07-31T04:47:15.056Z,19.08
2018-07-31T04:49:44.261Z,19.12
2018-07-31T04:52:13.312Z,19.14
2018-07-31T04:54:42.440Z,19.19
2018-07-31T04:57:11.276Z,19.21
2018-07-31T04:59:40.741Z,19.26
2018-07-31T05:02:12.050Z,19.30
2018-07-31T05:04:45.708Z,19.39
2018-07-31T05:07:21.207Z,19.49
2018-07-31T05:09:50.429Z,19.57
2018-07-31T05:12:28.403Z,19.64
2018-07-31T05:14:57.386Z,19.81
2018-07-31T05:17:32.914Z,19.87
2018-07-31T05:20:04.297Z,19.94
2018-07-31T05:25:21.944Z,20.05
2018-07-31T05:27:56.440Z,20.06
2018-07-31T05:30:25.441Z,20.09
2018-07-31T05:32:54.938Z,20.11
2018-07-31T05:35:24.791Z,20.12
2018-07-31T05:37:54.084Z,20.13
2018-07-31T05:40:23.239Z,20.16
2018-07-31T05:42:52.365Z,20.25
2018-07-31T05:45:21.409Z,20.36
2018-07-31T05:47:50.703Z,20.41
2018-07-31T05:50:20.379Z,20.53
2018-07-31T05:52:49.746Z,20.61
2018-07-31T05:55:19.559Z,20.66
2018-07-31T05:57:49.238Z,20.79
2018-07-31T06:00:18.982Z,20.87
2018-07-31T06:02:48.056Z,21.01
2018-07-31T06:05:17.107Z,21.13
2018-07-31T06:07:46.026Z,21.21
2018-07-31T06:10:15.290Z,21.34
2018-07-31T06:12:44.663Z,21.43
2018-07-31T06:15:13.615Z,21.55
2018-07-31T06:17:43.103Z,21.68
2018-07-31T06:20:14.379Z,21.79
2018-07-31T06:22:44.766Z,21.95
2018-07-31T06:25:15.752Z,22.03
2018-07-31T06:27:47.286Z,22.09
2018-07-31T06:30:17.978Z,22.17
2018-07-31T06:32:47.229Z,22.24
2018-07-31T06:35:16.780Z,22.28
2018-07-31T06:37:46.016Z,22.34
2018-07-31T06:40:15.232Z,22.44
2018-07-31T06:42:44.705Z,22.52
2018-07-31T06:45:14.014Z,22.58
2018-07-31T06:47:43.279Z,22.65
2018-07-31T06:50:12.773Z,22.78
2018-07-31T06:52:42.020Z,22.98
2018-07-31T06:55:11.833Z,23.17
2018-07-31T06:57:41.745Z,23.16
2018-07-31T07:00:11.493Z,23.24
2018-07-31T07:02:41.311Z,23.33
2018-07-31T07:05:11.025Z,23.37
2018-07-31T07:07:40.586Z,23.53
2018-07-31T07:10:09.994Z,23.59
2018-07-31T07:12:39.226Z,23.70
2018-07-31T07:15:10.387Z,23.79
2018-07-31T07:17:40.025Z,23.90
2018-07-31T07:20:09.303Z,24.05
2018-07-31T07:25:47.423Z,24.47
2018-07-31T07:28:53.835Z,24.52
2018-07-31T07:31:23.783Z,24.57
2018-07-31T07:33:55.359Z,24.66
2018-07-31T07:36:25.805Z,24.77
2018-07-31T07:38:54.872Z,24.87
2018-07-31T07:41:24.322Z,24.99
2018-07-31T07:43:53.344Z,25.25
2018-07-31T07:46:25.251Z,25.32
2018-07-31T07:48:55.077Z,25.34
2018-07-31T07:51:24.223Z,25.44
2018-07-31T07:53:53.459Z,25.53
2018-07-31T07:56:23.812Z,25.62
2018-07-31T07:58:53.196Z,25.72
2018-07-31T08:01:22.747Z,25.89
2018-07-31T08:03:52.338Z,26.11
2018-07-31T08:06:21.911Z,26.08
2018-07-31T08:08:52.060Z,25.99
2018-07-31T08:11:21.269Z,26.08
2018-07-31T08:13:50.562Z,26.14
2018-07-31T08:16:20.232Z,26.44
2018-07-31T08:18:49.261Z,26.58
2018-07-31T08:21:18.605Z,26.72
2018-07-31T08:23:48.188Z,26.78
2018-07-31T08:26:17.509Z,26.88
2018-07-31T08:28:46.689Z,27.00
2018-07-31T08:31:19.336Z,27.23
2018-07-31T08:33:48.949Z,27.47
2018-07-31T08:36:19.645Z,27.66
2018-07-31T08:38:50.772Z,27.97
2018-07-31T08:41:19.725Z,28.18
2018-07-31T08:43:48.793Z,28.48
2018-07-31T08:46:17.741Z,28.87
2018-07-31T08:48:46.619Z,29.18
2018-07-31T08:51:15.905Z,29.62
2018-07-31T08:53:45.034Z,30.12
2018-07-31T08:56:14.856Z,30.41
2018-07-31T08:58:44.618Z,30.84
2018-07-31T09:01:13.754Z,31.03
2018-07-31T09:03:42.853Z,31.37
2018-07-31T09:06:12.446Z,31.70
2018-07-31T09:08:41.515Z,31.85
2018-07-31T09:11:12.222Z,32.07
2018-07-31T09:13:41.779Z,32.16
2018-07-31T09:16:11.257Z,31.97
2018-07-31T09:18:41.415Z,32.10
2018-07-31T09:21:10.978Z,32.18
2018-07-31T09:23:40.175Z,32.34
2018-07-31T09:26:10.020Z,32.34
2018-07-31T09:28:39.294Z,32.56
2018-07-31T09:31:14.201Z,32.78
2018-07-31T09:33:44.338Z,33.11
2018-07-31T09:36:14.846Z,33.12
2018-07-31T09:38:45.981Z,33.35
2018-07-31T09:41:15.776Z,33.61
2018-07-31T09:43:46.644Z,33.88
2018-07-31T09:48:57.483Z,34.02
2018-07-31T09:51:32.165Z,33.72
2018-07-31T09:54:20.581Z,33.95
2018-07-31T09:57:13.612Z,34.06
2018-07-31T10:00:04.670Z,34.08
2018-07-31T10:02:35.005Z,34.04
2018-07-31T10:05:04.508Z,34.29
2018-07-31T10:07:35.067Z,34.27
2018-07-31T10:10:04.354Z,34.45
2018-07-31T10:12:48.902Z,34.45
2018-07-31T10:15:29.672Z,34.33
2018-07-31T10:17:58.952Z,34.25
2018-07-31T10:20:28.485Z,34.12
2018-07-31T10:23:00.055Z,34.44
2018-07-31T10:25:32.854Z,34.63
2018-07-31T10:28:02.460Z,34.69
2018-07-31T10:30:31.678Z,34.47
2018-07-31T10:33:01.451Z,34.49
2018-07-31T10:35:30.405Z,34.76
2018-07-31T10:38:01.090Z,34.92
2018-07-31T10:40:30.411Z,35.14
2018-07-31T10:42:59.430Z,35.06
2018-07-31T10:45:28.645Z,34.87
2018-07-31T10:47:57.586Z,34.37
2018-07-31T10:50:26.875Z,34.50
2018-07-31T10:52:55.797Z,34.20
2018-07-31T10:55:25.146Z,34.38
2018-07-31T10:57:54.050Z,34.52
2018-07-31T11:00:23.261Z,34.87
2018-07-31T11:02:52.476Z,35.37
2018-07-31T11:05:21.762Z,35.54
2018-07-31T11:07:50.736Z,35.12
2018-07-31T11:10:19.893Z,35.16
2018-07-31T11:12:49.068Z,35.27
2018-07-31T11:15:18.504Z,35.50
2018-07-31T11:17:47.865Z,35.75
2018-07-31T11:20:17.434Z,35.56
2018-07-31T11:22:46.908Z,35.04
2018-07-31T11:25:16.053Z,35.49
2018-07-31T11:27:46.268Z,35.47
2018-07-31T11:30:16.268Z,35.76
2018-07-31T11:32:45.759Z,36.23
2018-07-31T11:35:15.005Z,36.37
2018-07-31T11:37:44.200Z,36.68
2018-07-31T11:40:13.274Z,36.63
2018-07-31T11:42:42.385Z,36.94
2018-07-31T11:45:11.546Z,37.00
2018-07-31T11:47:40.876Z,37.24
2018-07-31T11:50:10.111Z,37.09
2018-07-31T11:52:39.645Z,36.79
2018-07-31T11:55:08.531Z,36.65
2018-07-31T11:57:37.847Z,36.23
2018-07-31T12:00:09.725Z,36.25
2018-07-31T12:02:38.949Z,36.18
2018-07-31T12:05:08.861Z,36.10
2018-07-31T12:07:37.825Z,36.23
2018-07-31T12:10:07.421Z,36.28
2018-07-31T12:12:37.572Z,36.78
2018-07-31T12:15:07.157Z,37.13
2018-07-31T12:17:37.539Z,36.54
2018-07-31T12:20:07.068Z,36.06
2018-07-31T12:22:36.574Z,36.34
2018-07-31T12:25:06.693Z,36.74
2018-07-31T12:27:36.305Z,37.05
2018-07-31T12:30:10.647Z,37.03
2018-07-31T12:32:40.943Z,37.28
2018-07-31T12:35:11.072Z,37.23
2018-07-31T12:37:40.001Z,37.16
2018-07-31T12:40:09.521Z,36.95
2018-07-31T12:42:38.473Z,36.78
2018-07-31T12:45:08.336Z,36.28
2018-07-31T12:47:37.837Z,35.21
2018-07-31T12:50:07.120Z,34.53
2018-07-31T12:52:36.454Z,34.85
2018-07-31T12:55:05.582Z,35.44
2018-07-31T12:57:35.057Z,35.49
2018-07-31T13:00:05.296Z,34.91
2018-07-31T13:02:35.821Z,35.03
2018-07-31T13:05:06.148Z,35.49
2018-07-31T13:07:36.269Z,35.91
2018-07-31T13:10:06.852Z,36.29
2018-07-31T13:12:36.611Z,35.74
2018-07-31T13:15:06.372Z,35.69
2018-07-31T13:17:35.790Z,35.83
2018-07-31T13:20:08.983Z,36.32
2018-07-31T13:22:38.082Z,36.54
2018-07-31T13:25:07.495Z,36.96
2018-07-31T13:27:37.276Z,37.21
2018-07-31T13:30:07.481Z,37.61
2018-07-31T13:32:41.436Z,37.53
2018-07-31T13:35:10.932Z,37.64
2018-07-31T13:37:40.618Z,37.73
2018-07-31T13:40:10.235Z,37.91
2018-07-31T13:42:39.609Z,37.87
2018-07-31T13:45:09.195Z,38.11
2018-07-31T13:47:38.584Z,37.59
2018-07-31T13:50:12.900Z,36.74
2018-07-31T13:52:46.324Z,36.61
2018-07-31T13:55:17.602Z,36.95
2018-07-31T13:57:48.583Z,37.07
2018-07-31T14:00:19.369Z,36.84
2018-07-31T14:02:48.465Z,36.86
2018-07-31T14:05:18.380Z,36.91
2018-07-31T14:07:47.679Z,36.91
2018-07-31T14:10:16.944Z,36.56
2018-07-31T14:12:46.246Z,36.70
2018-07-31T14:15:25.857Z,36.76
2018-07-31T14:17:55.509Z,36.97
2018-07-31T14:20:29.857Z,36.93
2018-07-31T14:23:01.846Z,37.16
2018-07-31T14:25:32.762Z,37.20
2018-07-31T14:28:03.011Z,37.32
2018-07-31T14:30:32.391Z,37.14
2018-07-31T14:33:02.510Z,36.88
2018-07-31T14:35:33.332Z,36.83
2018-07-31T14:38:03.374Z,36.77
2018-07-31T14:40:41.136Z,36.92
2018-07-31T14:43:11.671Z,37.08
2018-07-31T14:45:44.154Z,36.78
2018-07-31T14:48:13.639Z,36.89
2018-07-31T14:50:43.957Z,36.62
2018-07-31T14:53:21.647Z,36.61
2018-07-31T14:55:52.493Z,36.44
2018-07-31T14:58:27.373Z,36.67
2018-07-31T15:00:59.335Z,36.49
2018-07-31T15:03:29.659Z,36.35
2018-07-31T15:05:59.460Z,36.45
2018-07-31T15:08:30.673Z,36.70
2018-07-31T15:11:00.391Z,37.01
2018-07-31T15:13:29.935Z,37.18
2018-07-31T15:16:02.232Z,37.13
2018-07-31T15:18:50.106Z,37.24
2018-07-31T15:22:31.158Z,37.01
2018-07-31T15:25:08.895Z,36.94
2018-07-31T15:27:45.824Z,36.97
2018-07-31T15:30:15.768Z,36.79
2018-07-31T15:32:45.879Z,36.66
2018-07-31T15:35:16.566Z,36.74
2018-07-31T15:37:45.931Z,36.69
2018-07-31T15:40:15.248Z,36.74
2018-07-31T15:42:44.321Z,36.71
2018-07-31T15:45:13.634Z,36.77
2018-07-31T15:47:42.857Z,36.56
2018-07-31T15:50:11.764Z,36.53
2018-07-31T15:52:40.607Z,36.65
2018-07-31T15:55:09.984Z,36.51
2018-07-31T15:57:42.916Z,36.59
2018-07-31T16:00:12.767Z,36.63
2018-07-31T16:02:44.427Z,36.63
2018-07-31T16:05:15.592Z,36.70
2018-07-31T16:07:45.048Z,36.57
2018-07-31T16:10:14.548Z,36.13
2018-07-31T16:12:43.504Z,35.56
2018-07-31T16:15:17.669Z,35.34
2018-07-31T16:17:46.700Z,35.37
2018-07-31T16:20:15.588Z,35.50
2018-07-31T16:22:44.840Z,35.52
2018-07-31T16:25:14.356Z,35.54
2018-07-31T16:27:43.340Z,35.56
2018-07-31T16:30:12.227Z,35.43
2018-07-31T16:32:43.286Z,35.59
2018-07-31T16:35:12.805Z,35.58
2018-07-31T16:37:41.685Z,35.55
2018-07-31T16:40:10.650Z,35.38
2018-07-31T16:42:40.281Z,35.39
2018-07-31T16:45:10.648Z,35.03
2018-07-31T16:47:39.833Z,35.01
2018-07-31T16:50:08.694Z,34.87
2018-07-31T16:52:37.927Z,34.64
2018-07-31T16:55:07.775Z,34.70
2018-07-31T16:57:36.684Z,34.53
2018-07-31T17:00:06.127Z,34.44
2018-07-31T17:02:34.980Z,34.53
2018-07-31T17:05:04.264Z,34.37
2018-07-31T17:07:33.230Z,34.30
2018-07-31T17:10:02.093Z,34.05
2018-07-31T17:12:31.049Z,33.95
2018-07-31T17:15:00.959Z,34.01
2018-07-31T17:17:39.272Z,34.01
2018-07-31T17:20:08.741Z,33.94
2018-07-31T17:22:38.034Z,33.91
2018-07-31T17:25:07.513Z,33.65
2018-07-31T17:27:36.468Z,33.47
2018-07-31T17:30:05.984Z,33.19
2018-07-31T17:32:35.037Z,32.96
2018-07-31T17:35:04.497Z,32.71
2018-07-31T17:37:34.243Z,32.47
2018-07-31T17:40:03.641Z,32.28
2018-07-31T17:42:32.624Z,32.06
2018-07-31T17:45:02.302Z,31.86
2018-07-31T17:47:32.229Z,31.70
2018-07-31T17:50:01.036Z,31.61
2018-07-31T17:52:30.432Z,31.47
2018-07-31T17:54:59.715Z,31.33
2018-07-31T17:57:29.218Z,31.28
2018-07-31T17:59:58.398Z,31.18
2018-07-31T18:02:27.728Z,31.08
2018-07-31T18:04:57.129Z,30.91
2018-07-31T18:07:25.971Z,30.82
2018-07-31T18:09:54.789Z,30.76
2018-07-31T18:12:24.417Z,30.66
2018-07-31T18:14:53.256Z,30.54
2018-07-31T18:17:22.640Z,30.40
2018-07-31T18:19:51.541Z,30.23
2018-07-31T18:22:20.424Z,30.07
2018-07-31T18:24:49.547Z,29.91
2018-07-31T18:27:18.628Z,29.75
2018-07-31T18:29:48.453Z,29.61
2018-07-31T18:32:17.292Z,29.47
2018-07-31T18:34:46.143Z,29.36
2018-07-31T18:37:15.696Z,29.23
2018-07-31T18:39:44.555Z,29.08
2018-07-31T18:42:13.781Z,28.97
2018-07-31T18:44:42.953Z,28.86
2018-07-31T18:47:11.941Z,28.72
2018-07-31T18:49:41.292Z,28.56
2018-07-31T18:52:10.146Z,28.43
2018-07-31T18:54:38.972Z,28.39
2018-07-31T18:57:08.160Z,28.33
2018-07-31T18:59:37.389Z,28.26
2018-07-31T19:02:06.428Z,28.21
2018-07-31T19:04:35.265Z,28.12
2018-07-31T19:07:04.461Z,28.06
2018-07-31T19:09:33.352Z,28.20
2018-07-31T19:12:02.852Z,28.18
2018-07-31T19:14:32.441Z,28.15
2018-07-31T19:17:01.716Z,27.90
2018-07-31T19:19:30.594Z,27.93
2018-07-31T19:21:59.450Z,28.02
2018-07-31T19:24:29.599Z,27.85
2018-07-31T19:26:58.417Z,27.84
2018-07-31T19:29:27.917Z,27.71
2018-07-31T19:31:57.243Z,27.65
2018-07-31T19:34:26.613Z,27.46
2018-07-31T19:36:55.766Z,27.47
2018-07-31T19:39:24.956Z,27.29
2018-07-31T19:41:54.091Z,27.25
2018-07-31T19:44:23.079Z,27.23
2018-07-31T19:46:51.919Z,27.19
2018-07-31T19:49:20.793Z,27.17
2018-07-31T19:51:49.837Z,27.09
2018-07-31T19:54:19.004Z,27.03
2018-07-31T19:56:48.416Z,27.00
2018-07-31T19:59:17.240Z,26.96
2018-07-31T20:01:46.400Z,26.94
2018-07-31T20:04:20.136Z,26.91
2018-07-31T20:06:49.858Z,26.87
2018-07-31T20:09:25.951Z,26.85
2018-07-31T20:11:56.044Z,26.79
2018-07-31T20:14:25.352Z,26.63
2018-07-31T20:16:54.812Z,26.46
2018-07-31T20:19:24.000Z,26.31
2018-07-31T20:21:52.995Z,26.14
2018-07-31T20:24:22.207Z,25.98
2018-07-31T20:26:51.009Z,25.97
2018-07-31T20:29:20.730Z,25.97
2018-07-31T20:31:49.667Z,25.96
2018-07-31T20:34:18.508Z,25.91
2018-07-31T20:36:47.600Z,25.88
2018-07-31T20:39:16.470Z,25.79
2018-07-31T20:41:45.744Z,25.72
2018-07-31T20:44:14.742Z,25.58
2018-07-31T20:46:43.780Z,25.48
2018-07-31T20:49:12.735Z,25.42
2018-07-31T20:51:46.660Z,25.41
2018-07-31T20:54:28.641Z,25.33
2018-07-31T20:56:57.965Z,25.25
2018-07-31T20:59:27.085Z,25.23
2018-07-31T21:01:56.431Z,25.19
2018-07-31T21:04:25.793Z,25.19
2018-07-31T21:06:54.965Z,25.19
2018-07-31T21:09:24.084Z,25.16
2018-07-31T21:11:53.224Z,25.16
2018-07-31T21:14:22.230Z,25.13
2018-07-31T21:16:51.430Z,25.07
2018-07-31T21:19:20.676Z,25.05
2018-07-31T21:21:49.971Z,24.99
2018-07-31T21:24:19.108Z,24.96
2018-07-31T21:26:48.340Z,24.90
2018-07-31T21:29:17.496Z,24.85
2018-07-31T21:31:47.240Z,24.83
2018-07-31T21:34:16.530Z,24.76
2018-07-31T21:36:45.779Z,24.80
2018-07-31T21:39:15.678Z,24.81
2018-07-31T21:41:47.189Z,24.73
2018-07-31T21:44:17.069Z,24.70
2018-07-31T21:46:46.380Z,24.68
2018-07-31T21:49:17.682Z,24.65
2018-07-31T21:51:46.618Z,24.61
2018-07-31T21:54:15.614Z,24.58
2018-07-31T21:56:44.571Z,24.61
2018-07-31T21:59:13.858Z,24.59
2018-07-31T22:01:43.038Z,24.56
2018-07-31T22:04:12.424Z,24.55
2018-07-31T22:06:41.377Z,24.52
2018-07-31T22:09:10.833Z,24.54
2018-07-31T22:11:40.295Z,24.44
2018-07-31T22:14:09.607Z,24.41
2018-07-31T22:16:38.929Z,24.42
2018-07-31T22:19:07.875Z,24.37
2018-07-31T22:21:37.553Z,24.33
2018-07-31T22:24:06.542Z,24.32
2018-07-31T22:26:35.455Z,24.29
2018-07-31T22:29:04.765Z,24.21
2018-07-31T22:31:33.651Z,24.22
2018-07-31T22:34:02.816Z,24.21
2018-07-31T22:36:32.117Z,24.22
2018-07-31T22:39:01.889Z,24.18
2018-07-31T22:41:30.950Z,24.12
2018-07-31T22:44:00.181Z,24.06
2018-07-31T22:46:29.369Z,24.02
2018-07-31T22:48:58.549Z,23.99
2018-07-31T22:51:28.522Z,23.97
2018-07-31T22:53:58.539Z,23.95
2018-07-31T22:56:28.070Z,23.89
2018-07-31T22:58:57.818Z,23.82
2018-07-31T23:01:26.987Z,23.82
2018-07-31T23:03:57.018Z,23.71
2018-07-31T23:06:34.430Z,23.65
2018-07-31T23:09:03.802Z,23.62
2018-07-31T23:11:33.069Z,23.58
2018-07-31T23:14:02.227Z,23.45
2018-07-31T23:16:32.269Z,23.45
2018-07-31T23:19:01.338Z,23.42
2018-07-31T23:21:30.547Z,23.43
2018-07-31T23:23:59.792Z,23.42
2018-07-31T23:26:28.988Z,23.39
2018-07-31T23:28:58.353Z,23.44
2018-07-31T23:31:27.614Z,23.39
2018-07-31T23:33:56.925Z,23.37
2018-07-31T23:36:29.891Z,23.37
2018-07-31T23:39:01.631Z,23.37
2018-07-31T23:41:31.567Z,23.35
2018-07-31T23:44:00.769Z,23.28
2018-07-31T23:46:30.753Z,23.24
2018-07-31T23:49:00.113Z,23.24
2018-07-31T23:51:29.982Z,23.23
2018-07-31T23:53:59.169Z,23.26
2018-07-31T23:56:28.745Z,23.18
2018-07-31T23:58:57.897Z,23.18
